createdAt,value
2023-03-06T00:00:59.431Z,18.08
2023-03-06T00:03:28.866Z,19.52
2023-03-06T00:05:59.199Z,18.52
2023-03-06T00:08:31.519Z,21.13
2023-03-06T00:11:01.246Z,17.88
2023-03-06T00:13:36.347Z,17.65
2023-03-06T00:16:07.267Z,16.75
2023-03-06T00:18:38.735Z,15.40
2023-03-06T00:21:12.222Z,14.32
2023-03-06T00:23:41.512Z,18.17
2023-03-06T00:26:11.966Z,21.98
2023-03-06T00:28:43.913Z,27.33
2023-03-06T00:31:16.067Z,25.23
2023-03-06T00:33:45.082Z,28.40
2023-03-06T00:36:13.307Z,32.97
2023-03-06T00:38:43.600Z,29.52
2023-03-06T00:41:13.462Z,27.30
2023-03-06T00:43:42.668Z,25.10
2023-03-06T00:46:11.212Z,27.08
2023-03-06T00:48:44.265Z,26.70
2023-03-06T00:51:20.031Z,25.52
2023-03-06T00:53:49.377Z,25.13
2023-03-06T00:56:19.960Z,26.02
2023-03-06T00:58:49.440Z,26.05
2023-03-06T01:01:24.994Z,22.67
2023-03-06T01:04:12.913Z,21.33
2023-03-06T01:06:47.099Z,19.85
2023-03-06T01:09:16.476Z,18.30
2023-03-06T01:11:47.132Z,18.15
2023-03-06T01:14:22.283Z,16.17
2023-03-06T01:16:50.545Z,15.23
2023-03-06T01:19:18.819Z,14.43
2023-03-06T01:21:57.193Z,15.23
2023-03-06T01:24:26.033Z,14.32
2023-03-06T01:26:58.931Z,13.25
2023-03-06T01:29:27.115Z,14.80
2023-03-06T01:31:55.796Z,14.93
2023-03-06T01:34:25.893Z,13.27
2023-03-06T01:36:56.926Z,13.63
2023-03-06T01:39:26.818Z,13.90
2023-03-06T01:41:55.034Z,14.40
2023-03-06T01:44:23.413Z,14.82
2023-03-06T01:46:53.046Z,15.15
2023-03-06T01:49:31.653Z,18.27
2023-03-06T01:52:06.340Z,18.95
2023-03-06T01:54:44.626Z,20.40
2023-03-06T01:57:19.526Z,21.13
2023-03-06T01:59:53.329Z,19.88
2023-03-06T02:02:21.777Z,20.60
2023-03-06T02:04:52.514Z,19.02
2023-03-06T02:07:20.978Z,20.10
2023-03-06T02:09:56.326Z,18.38
2023-03-06T02:12:25.923Z,17.33
2023-03-06T02:14:55.687Z,19.15
2023-03-06T02:17:29.428Z,19.13
2023-03-06T02:20:11.788Z,19.23
2023-03-06T02:22:54.665Z,18.35
2023-03-06T02:25:45.048Z,18.42
2023-03-06T02:28:22.858Z,17.85
2023-03-06T02:30:52.438Z,19.02
2023-03-06T02:33:26.669Z,17.27
2023-03-06T02:36:03.870Z,17.67
2023-03-06T02:38:40.378Z,16.60
2023-03-06T02:41:16.538Z,14.40
2023-03-06T02:43:46.803Z,12.27
2023-03-06T02:46:17.926Z,14.85
2023-03-06T02:48:48.664Z,12.48
2023-03-06T02:51:16.887Z,13.18
2023-03-06T02:53:44.998Z,12.07
2023-03-06T02:56:15.432Z,11.93
2023-03-06T02:58:46.409Z,12.35
2023-03-06T03:01:15.298Z,12.40
2023-03-06T03:03:45.046Z,12.82
2023-03-06T03:06:13.988Z,12.50
2023-03-06T03:08:42.095Z,13.07
2023-03-06T03:11:16.385Z,13.02
2023-03-06T03:13:46.970Z,12.60
2023-03-06T03:16:20.169Z,11.38
2023-03-06T03:18:53.853Z,11.65
2023-03-06T03:21:25.666Z,12.43
2023-03-06T03:23:55.750Z,10.45
2023-03-06T03:26:26.209Z,10.05
2023-03-06T03:29:01.484Z,10.43
2023-03-06T03:31:30.141Z,9.88
2023-03-06T03:34:04.850Z,8.43
2023-03-06T03:41:25.571Z,8.23
2023-03-06T03:43:55.221Z,7.60
2023-03-06T03:46:25.599Z,6.60
2023-03-06T03:48:57.313Z,7.07
2023-03-06T03:51:25.424Z,7.72
2023-03-06T03:53:56.947Z,7.25
2023-03-06T03:56:28.174Z,6.95
2023-03-06T03:59:02.081Z,8.05
2023-03-06T04:01:38.439Z,8.68
2023-03-06T04:04:10.213Z,8.40
2023-03-06T04:06:39.341Z,7.70
2023-03-06T04:09:08.128Z,9.57
2023-03-06T04:11:38.924Z,9.23
2023-03-06T04:14:08.501Z,9.10
2023-03-06T04:16:38.247Z,9.57
2023-03-06T04:19:08.132Z,10.70
2023-03-06T04:21:40.574Z,10.02
2023-03-06T04:24:11.673Z,11.85
2023-03-06T04:26:41.011Z,11.23
2023-03-06T04:29:30.084Z,11.68
2023-03-06T04:31:58.940Z,11.90
2023-03-06T04:34:28.493Z,13.18
2023-03-06T04:36:57.288Z,13.95
2023-03-06T04:39:28.434Z,13.93
2023-03-06T04:42:06.871Z,15.67
2023-03-06T04:44:41.343Z,13.00
2023-03-06T04:47:09.342Z,14.48
2023-03-06T04:49:38.710Z,11.80
2023-03-06T04:52:07.555Z,10.48
2023-03-06T04:54:37.445Z,9.43
2023-03-06T04:57:06.429Z,10.20
2023-03-06T04:59:39.063Z,9.60
2023-03-06T05:02:10.703Z,9.13
2023-03-06T05:04:41.626Z,8.30
2023-03-06T05:07:10.975Z,8.18
2023-03-06T05:09:39.303Z,8.45
2023-03-06T05:12:08.226Z,8.15
2023-03-06T05:14:40.483Z,9.13
2023-03-06T05:17:08.678Z,7.25
2023-03-06T05:19:40.076Z,6.72
2023-03-06T05:22:08.423Z,6.65
2023-03-06T05:24:40.278Z,6.88
2023-03-06T05:27:09.509Z,6.35
2023-03-06T05:29:37.583Z,6.53
2023-03-06T05:32:06.663Z,6.32
2023-03-06T05:34:35.058Z,6.10
2023-03-06T05:37:04.445Z,7.90
2023-03-06T05:39:35.262Z,10.50
2023-03-06T05:42:06.479Z,15.43
2023-03-06T05:44:37.025Z,14.45
2023-03-06T05:47:05.362Z,13.48
2023-03-06T05:49:36.924Z,13.27
2023-03-06T05:52:05.910Z,13.60
2023-03-06T05:54:34.542Z,12.43
2023-03-06T05:57:07.381Z,13.60
2023-03-06T05:59:36.175Z,15.75
2023-03-06T06:02:05.771Z,17.50
2023-03-06T06:04:35.019Z,18.55
2023-03-06T06:07:06.212Z,19.73
2023-03-06T06:09:35.233Z,19.85
2023-03-06T06:12:03.938Z,17.95
2023-03-06T06:14:34.220Z,19.35
2023-03-06T06:17:04.337Z,21.70
2023-03-06T06:19:32.653Z,25.20
2023-03-06T06:22:04.018Z,39.38
2023-03-06T06:24:33.204Z,41.65
2023-03-06T06:27:03.739Z,39.55
2023-03-06T06:29:34.518Z,34.20
2023-03-06T06:32:05.242Z,28.85
2023-03-06T06:34:41.026Z,25.27
2023-03-06T06:37:09.014Z,22.38
2023-03-06T06:39:38.314Z,18.13
2023-03-06T06:42:29.058Z,17.60
2023-03-06T06:44:56.941Z,14.15
2023-03-06T06:47:26.244Z,14.65
2023-03-06T06:49:56.643Z,11.95
2023-03-06T06:52:26.925Z,10.75
2023-03-06T06:54:59.812Z,10.50
2023-03-06T06:57:29.287Z,11.70
2023-03-06T06:59:57.551Z,11.18
2023-03-06T07:02:26.337Z,12.45
2023-03-06T07:05:04.230Z,13.02
2023-03-06T07:07:38.172Z,12.35
2023-03-06T07:10:12.878Z,11.07
2023-03-06T07:12:43.221Z,11.20
2023-03-06T07:15:15.079Z,9.25
2023-03-06T07:17:51.840Z,7.93
2023-03-06T07:20:30.087Z,7.38
2023-03-06T07:22:59.582Z,7.97
2023-03-06T07:25:31.568Z,8.90
2023-03-06T07:28:07.424Z,9.02
2023-03-06T07:30:41.407Z,7.82
2023-03-06T07:33:23.518Z,8.10
2023-03-06T07:35:55.327Z,7.70
2023-03-06T07:38:30.728Z,9.43
2023-03-06T07:41:00.609Z,8.32
2023-03-06T07:43:29.131Z,8.65
2023-03-06T07:46:04.873Z,7.20
2023-03-06T07:48:41.504Z,5.43
2023-03-06T07:51:36.289Z,5.72
2023-03-06T07:54:07.294Z,5.47
2023-03-06T07:56:45.540Z,6.80
2023-03-06T07:59:17.129Z,6.95
2023-03-06T08:01:45.790Z,6.55
2023-03-06T08:04:17.793Z,5.88
2023-03-06T08:06:45.822Z,5.40
2023-03-06T08:09:18.611Z,6.55
2023-03-06T08:11:51.017Z,5.65
2023-03-06T08:14:23.212Z,5.65
2023-03-06T08:16:55.742Z,5.43
2023-03-06T08:19:25.152Z,5.68
2023-03-06T08:21:57.512Z,6.53
2023-03-06T08:24:27.636Z,7.10
2023-03-06T08:26:58.425Z,5.88
2023-03-06T08:29:47.306Z,6.22
2023-03-06T08:32:15.478Z,6.53
2023-03-06T08:34:47.539Z,6.13
2023-03-06T08:37:22.489Z,6.38
2023-03-06T08:39:51.080Z,5.68
2023-03-06T08:42:19.216Z,6.82
2023-03-06T08:44:47.705Z,7.05
2023-03-06T08:47:16.174Z,6.47
2023-03-06T08:49:47.998Z,7.20
2023-03-06T08:52:20.147Z,7.65
2023-03-06T08:54:48.457Z,6.47
2023-03-06T08:57:16.497Z,6.72
2023-03-06T08:59:51.565Z,5.78
2023-03-06T09:02:23.590Z,6.38
2023-03-06T09:04:51.742Z,6.32
2023-03-06T09:07:21.000Z,5.63
2023-03-06T09:09:50.427Z,6.18
2023-03-06T09:12:20.286Z,6.55
2023-03-06T09:14:50.905Z,6.75
2023-03-06T09:17:25.097Z,5.60
2023-03-06T09:19:56.231Z,7.32
2023-03-06T09:22:25.098Z,6.70
2023-03-06T09:24:56.221Z,7.25
2023-03-06T09:27:28.792Z,6.72
2023-03-06T09:29:57.053Z,7.00
2023-03-06T09:32:25.799Z,7.25
2023-03-06T09:34:55.741Z,6.47
2023-03-06T09:37:24.877Z,6.75
2023-03-06T09:39:55.366Z,5.93
2023-03-06T09:42:25.379Z,5.93
2023-03-06T09:44:58.471Z,5.55
2023-03-06T09:48:02.441Z,6.13
2023-03-06T09:50:33.893Z,6.82
2023-03-06T09:53:28.623Z,6.57
2023-03-06T09:57:02.424Z,6.05
2023-03-06T10:00:36.312Z,5.60
2023-03-06T10:03:20.077Z,5.63
2023-03-06T10:06:00.893Z,5.03
2023-03-06T10:08:54.658Z,4.53
2023-03-06T10:11:43.021Z,5.53
2023-03-06T10:14:17.329Z,4.85
2023-03-06T10:16:45.730Z,5.18
2023-03-06T10:19:20.074Z,5.32
2023-03-06T10:21:59.187Z,6.32
2023-03-06T10:24:47.360Z,5.80
2023-03-06T10:27:29.317Z,5.85
2023-03-06T10:30:51.520Z,6.15
2023-03-06T10:34:19.121Z,5.40
2023-03-06T10:36:50.293Z,5.60
2023-03-06T10:39:22.446Z,5.70
2023-03-06T10:41:51.218Z,6.60
2023-03-06T10:44:24.896Z,5.60
2023-03-06T10:46:56.493Z,5.43
2023-03-06T10:49:26.262Z,4.90
2023-03-06T10:52:03.262Z,4.82
2023-03-06T10:54:37.071Z,6.60
2023-03-06T10:57:19.735Z,6.55
2023-03-06T11:00:08.761Z,6.55
2023-03-06T11:02:43.611Z,5.40
2023-03-06T11:05:21.194Z,6.82
2023-03-06T11:07:55.458Z,5.72
2023-03-06T11:10:27.367Z,6.20
2023-03-06T11:13:07.872Z,5.70
2023-03-06T11:15:42.161Z,5.10
2023-03-06T11:18:12.520Z,4.45
2023-03-06T11:20:55.043Z,5.25
2023-03-06T11:23:29.105Z,3.88
2023-03-06T11:26:00.131Z,4.18
2023-03-06T11:28:41.284Z,3.80
2023-03-06T11:31:27.667Z,4.70
2023-03-06T11:34:28.436Z,4.45
2023-03-06T11:37:09.236Z,4.45
2023-03-06T11:39:43.552Z,5.15
2023-03-06T11:43:01.035Z,5.07
2023-03-06T11:46:20.246Z,4.53
2023-03-06T11:49:12.643Z,4.63
2023-03-06T11:51:50.589Z,4.85
2023-03-06T12:00:34.220Z,4.30
2023-03-06T12:03:35.973Z,4.57
2023-03-06T12:06:45.892Z,5.03
2023-03-06T12:09:59.666Z,5.57
2023-03-06T12:13:06.628Z,6.57
2023-03-06T12:15:42.022Z,5.82
2023-03-06T12:18:35.946Z,5.65
2023-03-06T12:21:48.344Z,5.22
2023-03-06T12:24:59.883Z,5.55
2023-03-06T12:27:39.643Z,6.03
2023-03-06T12:30:31.975Z,4.57
2023-03-06T12:33:35.723Z,5.25
2023-03-06T12:36:56.568Z,5.32
2023-03-06T12:39:42.550Z,5.05
2023-03-06T12:42:49.203Z,5.20
2023-03-06T12:50:32.639Z,4.43
2023-03-06T12:53:14.474Z,4.03
2023-03-06T12:55:50.879Z,4.15
2023-03-06T12:58:28.878Z,4.55
2023-03-06T13:01:39.482Z,5.15
2023-03-06T13:04:35.405Z,5.22
2023-03-06T13:07:40.171Z,4.22
2023-03-06T13:10:28.450Z,5.07
2023-03-06T13:13:27.712Z,6.10
2023-03-06T13:16:13.848Z,5.63
2023-03-06T13:18:44.093Z,4.70
2023-03-06T13:21:56.711Z,5.30
2023-03-06T13:24:35.030Z,4.68
2023-03-06T13:27:08.363Z,5.82
2023-03-06T13:29:37.243Z,5.75
2023-03-06T13:32:08.047Z,5.60
2023-03-06T13:34:37.482Z,5.03
2023-03-06T13:37:23.267Z,4.70
2023-03-06T13:39:59.808Z,5.10
2023-03-06T13:42:28.770Z,4.72
2023-03-06T13:45:17.604Z,5.30
2023-03-06T13:48:14.161Z,5.10
2023-03-06T13:50:44.060Z,6.38
2023-03-06T13:53:45.896Z,7.15
2023-03-06T13:56:48.139Z,6.07
2023-03-06T13:59:41.874Z,6.10
2023-03-06T14:02:24.206Z,6.13
2023-03-06T14:05:00.210Z,5.78
2023-03-06T14:07:43.092Z,5.25
2023-03-06T14:10:14.723Z,5.50
2023-03-06T14:12:50.966Z,4.88
2023-03-06T14:15:23.070Z,4.32
2023-03-06T14:18:00.612Z,5.07
2023-03-06T14:20:35.766Z,5.05
2023-03-06T14:23:28.259Z,5.00
2023-03-06T14:26:15.617Z,5.00
2023-03-06T14:31:19.163Z,3.95
2023-03-06T14:36:26.326Z,5.70
2023-03-06T14:38:57.358Z,5.25
2023-03-06T14:41:30.315Z,5.82
2023-03-06T14:44:28.593Z,6.50
2023-03-06T14:46:57.540Z,6.25
2023-03-06T14:49:26.062Z,6.57
2023-03-06T14:51:56.608Z,7.05
2023-03-06T14:54:28.821Z,9.65
2023-03-06T14:57:08.212Z,7.35
2023-03-06T14:59:49.214Z,7.40
2023-03-06T15:02:26.812Z,7.70
2023-03-06T15:07:30.648Z,7.72
2023-03-06T15:10:02.865Z,9.95
2023-03-06T15:12:35.285Z,7.78
2023-03-06T15:15:05.249Z,7.88
2023-03-06T15:17:41.849Z,7.28
2023-03-06T15:20:38.177Z,8.20
2023-03-06T15:23:37.330Z,9.65
2023-03-06T15:26:31.963Z,9.48
2023-03-06T15:29:10.349Z,10.13
2023-03-06T15:31:42.346Z,10.13
2023-03-06T15:34:11.120Z,11.80
2023-03-06T15:36:42.958Z,11.45
2023-03-06T15:39:36.458Z,12.80
2023-03-06T15:42:25.096Z,16.23
2023-03-06T15:44:58.058Z,17.35
2023-03-06T15:47:26.285Z,18.25
2023-03-06T15:49:55.582Z,17.80
2023-03-06T15:52:23.924Z,17.92
2023-03-06T15:54:52.083Z,20.83
2023-03-06T15:57:26.605Z,18.38
2023-03-06T15:59:59.598Z,18.48
2023-03-06T16:02:44.034Z,20.85
2023-03-06T16:05:16.835Z,20.77
2023-03-06T16:07:47.567Z,21.23
2023-03-06T16:10:52.622Z,23.65
2023-03-06T16:13:28.291Z,25.00
2023-03-06T16:15:58.295Z,21.90
2023-03-06T16:18:26.766Z,21.63
2023-03-06T16:20:56.188Z,20.45
2023-03-06T16:23:26.171Z,21.30
2023-03-06T16:25:54.115Z,22.45
2023-03-06T16:28:56.714Z,24.00
2023-03-06T16:31:24.778Z,23.88
2023-03-06T16:33:55.075Z,23.85
2023-03-06T16:36:28.265Z,26.08
2023-03-06T16:38:57.502Z,25.80
2023-03-06T16:41:27.841Z,26.35
2023-03-06T16:43:56.259Z,29.25
2023-03-06T16:46:24.637Z,27.92
2023-03-06T16:49:04.907Z,27.92
2023-03-06T16:51:33.741Z,29.73
2023-03-06T16:54:05.607Z,32.40
2023-03-06T16:56:34.752Z,33.63
2023-03-06T16:59:03.971Z,34.05
2023-03-06T17:01:35.492Z,36.03
2023-03-06T17:04:05.054Z,37.65
2023-03-06T17:06:39.339Z,34.65
2023-03-06T17:09:07.836Z,33.50
2023-03-06T17:11:38.857Z,30.55
2023-03-06T17:14:09.530Z,30.80
2023-03-06T17:16:40.567Z,29.25
2023-03-06T17:19:18.675Z,29.42
2023-03-06T17:21:54.529Z,25.38
2023-03-06T17:25:05.520Z,23.50
2023-03-06T17:27:35.422Z,21.27
2023-03-06T17:30:06.558Z,22.27
2023-03-06T17:32:46.695Z,24.65
2023-03-06T17:40:00.279Z,28.27
2023-03-06T17:43:11.730Z,29.75
2023-03-06T17:45:45.609Z,25.92
2023-03-06T17:48:23.528Z,25.33
2023-03-06T17:51:02.536Z,27.60
2023-03-06T17:54:54.348Z,24.70
2023-03-06T18:03:32.906Z,19.55
2023-03-06T18:06:13.944Z,18.10
2023-03-06T18:10:36.426Z,22.98
2023-03-06T18:14:14.638Z,20.00
2023-03-06T18:25:05.775Z,22.15
2023-03-06T18:27:34.672Z,23.10
2023-03-06T18:30:04.068Z,23.27
2023-03-06T18:32:34.010Z,22.65
2023-03-06T18:40:56.621Z,19.13
2023-03-06T18:53:01.406Z,20.85
2023-03-06T18:56:02.240Z,22.73
2023-03-06T18:58:41.123Z,26.48
2023-03-06T19:05:46.519Z,29.10
2023-03-06T19:08:20.974Z,28.27
2023-03-06T19:10:53.876Z,26.48
2023-03-06T19:13:24.725Z,23.92
2023-03-06T19:15:59.530Z,20.92
2023-03-06T19:18:55.556Z,17.55
2023-03-06T19:21:26.998Z,16.65
2023-03-06T19:23:59.745Z,16.95
2023-03-06T19:26:28.508Z,14.75
2023-03-06T19:29:00.936Z,15.77
2023-03-06T19:31:32.005Z,15.20
2023-03-06T19:34:00.785Z,14.38
2023-03-06T19:36:33.654Z,15.43
2023-03-06T19:39:04.714Z,14.77
2023-03-06T19:41:34.713Z,14.32
2023-03-06T19:44:05.148Z,16.15
2023-03-06T19:47:05.984Z,15.05
2023-03-06T19:49:48.257Z,13.82
2023-03-06T19:52:40.697Z,16.08
2023-03-06T19:55:41.167Z,21.77
2023-03-06T19:58:13.494Z,22.52
2023-03-06T20:00:48.374Z,22.88
2023-03-06T20:03:17.358Z,21.85
2023-03-06T20:06:03.307Z,17.80
2023-03-06T20:08:36.554Z,18.00
2023-03-06T20:11:05.135Z,18.10
2023-03-06T20:13:34.942Z,19.23
2023-03-06T20:20:44.570Z,17.73
2023-03-06T20:23:16.234Z,16.10
2023-03-06T20:25:46.779Z,14.45
2023-03-06T20:28:19.604Z,16.50
2023-03-06T20:30:51.932Z,17.75
2023-03-06T20:33:27.392Z,16.67
2023-03-06T20:35:59.579Z,16.30
2023-03-06T20:38:34.747Z,16.33
2023-03-06T20:41:06.403Z,15.18
2023-03-06T20:44:08.507Z,13.13
2023-03-06T20:46:41.789Z,11.90
2023-03-06T20:49:15.075Z,10.52
2023-03-06T20:51:44.273Z,9.77
2023-03-06T20:54:14.795Z,10.57
2023-03-06T20:56:59.137Z,14.15
2023-03-06T20:59:35.557Z,13.75
2023-03-06T21:02:05.334Z,12.63
2023-03-06T21:04:35.497Z,11.60
2023-03-06T21:07:04.158Z,11.00
2023-03-06T21:23:45.673Z,11.02
2023-03-06T21:26:20.257Z,11.10
2023-03-06T21:28:53.721Z,12.25
2023-03-06T21:31:23.068Z,11.93
2023-03-06T21:33:54.920Z,10.68
2023-03-06T21:36:59.212Z,10.77
2023-03-06T21:39:27.837Z,10.93
2023-03-06T21:42:29.866Z,11.35
2023-03-06T21:45:05.540Z,9.85
2023-03-06T21:47:48.527Z,10.20
2023-03-06T21:51:24.236Z,10.35
2023-03-06T21:54:14.367Z,9.73
2023-03-06T21:56:45.711Z,9.18
2023-03-06T21:59:17.566Z,10.27
2023-03-06T22:01:47.692Z,9.98
2023-03-06T22:04:15.661Z,10.60
2023-03-06T22:06:44.428Z,10.73
2023-03-06T22:09:19.313Z,11.15
2023-03-06T22:11:48.311Z,12.27
2023-03-06T22:14:19.242Z,12.93
2023-03-06T22:16:53.759Z,12.50
2023-03-06T22:19:22.591Z,12.50
2023-03-06T22:21:50.532Z,12.98
2023-03-06T22:24:19.928Z,12.77
2023-03-06T22:26:48.575Z,12.20
2023-03-06T22:29:18.500Z,13.10
2023-03-06T22:31:48.112Z,13.25
2023-03-06T22:34:16.356Z,13.27
2023-03-06T22:37:05.127Z,13.70
2023-03-06T22:39:34.867Z,16.77
2023-03-06T22:42:02.990Z,17.02
2023-03-06T22:44:34.449Z,14.77
2023-03-06T22:47:05.783Z,15.93
2023-03-06T22:49:35.216Z,16.35
2023-03-06T22:52:03.815Z,18.45
2023-03-06T22:54:33.276Z,17.65
2023-03-06T22:57:01.747Z,18.50
2023-03-06T22:59:30.046Z,17.52
2023-03-06T23:02:02.799Z,17.50
2023-03-06T23:04:33.207Z,16.10
2023-03-06T23:07:01.262Z,15.88
2023-03-06T23:09:31.368Z,15.73
2023-03-06T23:12:19.753Z,16.77
2023-03-06T23:15:08.781Z,17.13
2023-03-06T23:18:01.486Z,18.95
2023-03-06T23:20:48.719Z,18.33
2023-03-06T23:23:37.689Z,16.00
2023-03-06T23:26:07.887Z,15.65
2023-03-06T23:28:36.513Z,15.13
2023-03-06T23:31:08.798Z,17.27
2023-03-06T23:33:39.071Z,16.33
2023-03-06T23:36:08.608Z,15.73
2023-03-06T23:38:38.316Z,14.95
2023-03-06T23:41:13.198Z,15.30
2023-03-06T23:43:43.839Z,13.68
2023-03-06T23:46:12.366Z,14.70
2023-03-06T23:48:41.529Z,14.98
2023-03-06T23:51:20.165Z,15.52
2023-03-06T23:53:54.704Z,15.65
2023-03-06T23:56:23.899Z,14.88
2023-03-06T23:58:54.331Z,14.88
